sensor_id;sensor_type;location;lat;lon;timestamp;pressure;altitude;pressure_sealevel;temperature;humidity
21357;BME280;10836;53.068;18.234;2023-02-02T00:01:33;99754.28;;;2.55;100.00
21357;BME280;10836;53.068;18.234;2023-02-02T00:04:00;99747.28;;;2.54;100.00
21357;BME280;10836;53.068;18.234;2023-02-02T00:06:28;99749.25;;;2.59;100.00
21357;BME280;10836;53.068;18.234;2023-02-02T00:08:57;99740.88;;;2.60;100.00
21357;BME280;10836;53.068;18.234;2023-02-02T00:11:25;99752.47;;;2.61;100.00
21357;BME280;10836;53.068;18.234;2023-02-02T00:13:53;99746.28;;;2.60;100.00
21357;BME280;10836;53.068;18.234;2023-02-02T00:18:55;99735.00;;;2.63;100.00
21357;BME280;10836;53.068;18.234;2023-02-02T00:21:22;99739.81;;;2.61;100.00
21357;BME280;10836;53.068;18.234;2023-02-02T00:23:49;99736.06;;;2.62;100.00
21357;BME280;10836;53.068;18.234;2023-02-02T00:26:17;99741.97;;;2.59;100.00
21357;BME280;10836;53.068;18.234;2023-02-02T00:28:44;99738.69;;;2.57;100.00
21357;BME280;10836;53.068;18.234;2023-02-02T00:31:11;99735.44;;;2.55;100.00
21357;BME280;10836;53.068;18.234;2023-02-02T00:33:38;99727.16;;;2.62;100.00
21357;BME280;10836;53.068;18.234;2023-02-02T00:36:05;99733.06;;;2.59;100.00
21357;BME280;10836;53.068;18.234;2023-02-02T00:38:32;99730.63;;;2.57;100.00
21357;BME280;10836;53.068;18.234;2023-02-02T00:41:00;99726.88;;;2.58;100.00
21357;BME280;10836;53.068;18.234;2023-02-02T00:43:27;99727.59;;;2.54;100.00
21357;BME280;10836;53.068;18.234;2023-02-02T00:45:54;99736.00;;;2.57;100.00
21357;BME280;10836;53.068;18.234;2023-02-02T00:48:21;99735.19;;;2.57;100.00
21357;BME280;10836;53.068;18.234;2023-02-02T00:50:48;99734.03;;;2.53;100.00
21357;BME280;10836;53.068;18.234;2023-02-02T00:53:15;99728.50;;;2.59;100.00
21357;BME280;10836;53.068;18.234;2023-02-02T00:55:42;99726.53;;;2.55;100.00
21357;BME280;10836;53.068;18.234;2023-02-02T00:58:09;99724.41;;;2.57;100.00
21357;BME280;10836;53.068;18.234;2023-02-02T01:00:36;99736.81;;;2.58;100.00
21357;BME280;10836;53.068;18.234;2023-02-02T01:03:03;99727.97;;;2.62;100.00
21357;BME280;10836;53.068;18.234;2023-02-02T01:05:33;99733.06;;;2.59;100.00
21357;BME280;10836;53.068;18.234;2023-02-02T01:08:00;99728.50;;;2.59;100.00
21357;BME280;10836;53.068;18.234;2023-02-02T01:10:27;99722.09;;;2.65;100.00
21357;BME280;10836;53.068;18.234;2023-02-02T01:12:54;99718.84;;;2.63;100.00
21357;BME280;10836;53.068;18.234;2023-02-02T01:15:21;99710.44;;;2.60;100.00
21357;BME280;10836;53.068;18.234;2023-02-02T01:17:49;99711.81;;;2.62;100.00
21357;BME280;10836;53.068;18.234;2023-02-02T01:20:18;99706.41;;;2.62;100.00
21357;BME280;10836;53.068;18.234;2023-02-02T01:22:46;99695.06;;;2.60;100.00
21357;BME280;10836;53.068;18.234;2023-02-02T01:25:13;99693.19;;;2.61;100.00
21357;BME280;10836;53.068;18.234;2023-02-02T01:27:40;99689.66;;;2.60;100.00
21357;BME280;10836;53.068;18.234;2023-02-02T01:30:09;99678.41;;;2.63;100.00
21357;BME280;10836;53.068;18.234;2023-02-02T01:32:36;99676.72;;;2.57;100.00
21357;BME280;10836;53.068;18.234;2023-02-02T01:35:04;99678.34;;;2.58;100.00
21357;BME280;10836;53.068;18.234;2023-02-02T01:37:31;99667.25;;;2.55;100.00
21357;BME280;10836;53.068;18.234;2023-02-02T01:39:58;99677.81;;;2.61;100.00
21357;BME280;10836;53.068;18.234;2023-02-02T01:42:25;99657.41;;;2.65;100.00
21357;BME280;10836;53.068;18.234;2023-02-02T01:45:11;99672.97;;;2.58;100.00
21357;BME280;10836;53.068;18.234;2023-02-02T01:47:44;99667.88;;;2.62;100.00
21357;BME280;10836;53.068;18.234;2023-02-02T01:50:14;99668.19;;;2.65;100.00
21357;BME280;10836;53.068;18.234;2023-02-02T01:52:45;99669.81;;;2.66;100.00
21357;BME280;10836;53.068;18.234;2023-02-02T01:55:17;99664.44;;;2.66;100.00
21357;BME280;10836;53.068;18.234;2023-02-02T01:57:52;99663.38;;;2.67;100.00
21357;BME280;10836;53.068;18.234;2023-02-02T02:00:20;99662.31;;;2.68;100.00
21357;BME280;10836;53.068;18.234;2023-02-02T02:02:56;99664.94;;;2.63;100.00
21357;BME280;10836;53.068;18.234;2023-02-02T02:05:29;99656.28;;;2.61;100.00
21357;BME280;10836;53.068;18.234;2023-02-02T02:08:18;99662.81;;;2.65;100.00
21357;BME280;10836;53.068;18.234;2023-02-02T02:10:46;99655.19;;;2.62;100.00
21357;BME280;10836;53.068;18.234;2023-02-02T02:13:14;99638.47;;;2.60;100.00
21357;BME280;10836;53.068;18.234;2023-02-02T02:15:56;99656.47;;;2.55;100.00
21357;BME280;10836;53.068;18.234;2023-02-02T02:22:08;99638.47;;;2.60;100.00
21357;BME280;10836;53.068;18.234;2023-02-02T02:26:24;99639.47;;;2.54;100.00
21357;BME280;10836;53.068;18.234;2023-02-02T02:37:31;99646.34;;;2.45;100.00
21357;BME280;10836;53.068;18.234;2023-02-02T02:42:57;99638.59;;;2.49;100.00
21357;BME280;10836;53.068;18.234;2023-02-02T02:45:27;99627.25;;;2.47;100.00
21357;BME280;10836;53.068;18.234;2023-02-02T02:47:55;99627.00;;;2.48;100.00
21357;BME280;10836;53.068;18.234;2023-02-02T02:50:23;99618.91;;;2.48;100.00
21357;BME280;10836;53.068;18.234;2023-02-02T02:53:04;99610.25;;;2.46;100.00
21357;BME280;10836;53.068;18.234;2023-02-02T02:59:11;99607.00;;;2.44;100.00
21357;BME280;10836;53.068;18.234;2023-02-02T03:02:00;99600.38;;;2.35;100.00
21357;BME280;10836;53.068;18.234;2023-02-02T03:04:45;99597.19;;;2.38;100.00
21357;BME280;10836;53.068;18.234;2023-02-02T03:07:22;99592.78;;;2.32;100.00
21357;BME280;10836;53.068;18.234;2023-02-02T03:09:53;99588.72;;;2.29;100.00
21357;BME280;10836;53.068;18.234;2023-02-02T03:12:23;99585.44;;;2.27;100.00
21357;BME280;10836;53.068;18.234;2023-02-02T03:14:49;99579.25;;;2.27;100.00
21357;BME280;10836;53.068;18.234;2023-02-02T03:17:17;99581.38;;;2.25;100.00
21357;BME280;10836;53.068;18.234;2023-02-02T03:19:43;99575.97;;;2.25;100.00
21357;BME280;10836;53.068;18.234;2023-02-02T03:22:11;99570.59;;;2.25;100.00
21357;BME280;10836;53.068;18.234;2023-02-02T03:24:37;99572.91;;;2.16;100.00
21357;BME280;10836;53.068;18.234;2023-02-02T03:27:04;99564.56;;;2.18;100.00
21357;BME280;10836;53.068;18.234;2023-02-02T03:29:31;99552.66;;;2.14;100.00
21357;BME280;10836;53.068;18.234;2023-02-02T03:31:58;99559.38;;;2.11;100.00
21357;BME280;10836;53.068;18.234;2023-02-02T03:34:25;99551.22;;;2.06;100.00
21357;BME280;10836;53.068;18.234;2023-02-02T03:36:52;99537.41;;;2.03;100.00
21357;BME280;10836;53.068;18.234;2023-02-02T03:39:19;99542.22;;;2.00;100.00
21357;BME280;10836;53.068;18.234;2023-02-02T03:41:46;99540.94;;;2.03;100.00
21357;BME280;10836;53.068;18.234;2023-02-02T03:44:13;99538.97;;;1.98;100.00
21357;BME280;10836;53.068;18.234;2023-02-02T03:46:40;99549.41;;;1.95;100.00
21357;BME280;10836;53.068;18.234;2023-02-02T03:49:07;99538.31;;;1.91;100.00
21357;BME280;10836;53.068;18.234;2023-02-02T03:51:34;99528.03;;;1.88;100.00
21357;BME280;10836;53.068;18.234;2023-02-02T03:54:01;99529.66;;;1.89;100.00
21357;BME280;10836;53.068;18.234;2023-02-02T03:56:28;99523.13;;;1.85;100.00
21357;BME280;10836;53.068;18.234;2023-02-02T03:58:54;99536.03;;;1.83;100.00
21357;BME280;10836;53.068;18.234;2023-02-02T04:01:26;99525.75;;;1.80;100.00
21357;BME280;10836;53.068;18.234;2023-02-02T04:03:55;99519.53;;;1.80;100.00
21357;BME280;10836;53.068;18.234;2023-02-02T04:06:23;99517.59;;;1.75;100.00
21357;BME280;10836;53.068;18.234;2023-02-02T04:08:50;99519.72;;;1.73;100.00
21357;BME280;10836;53.068;18.234;2023-02-02T04:11:18;99525.59;;;1.70;100.00
21357;BME280;10836;53.068;18.234;2023-02-02T04:13:44;99528.22;;;1.65;100.00
21357;BME280;10836;53.068;18.234;2023-02-02T04:16:12;99525.75;;;1.63;100.00
21357;BME280;10836;53.068;18.234;2023-02-02T04:18:39;99519.72;;;1.56;100.00
21357;BME280;10836;53.068;18.234;2023-02-02T04:21:06;99521.09;;;1.59;100.00
21357;BME280;10836;53.068;18.234;2023-02-02T04:23:34;99519.88;;;1.50;100.00
21357;BME280;10836;53.068;18.234;2023-02-02T04:26:02;99520.34;;;1.47;100.00
21357;BME280;10836;53.068;18.234;2023-02-02T04:28:28;99509.75;;;1.40;100.00
21357;BME280;10836;53.068;18.234;2023-02-02T04:30:56;99514.78;;;1.37;100.00
21357;BME280;10836;53.068;18.234;2023-02-02T04:33:24;99520.97;;;1.20;100.00
21357;BME280;10836;53.068;18.234;2023-02-02T04:35:52;99520.50;;;1.23;100.00
21357;BME280;10836;53.068;18.234;2023-02-02T04:38:19;99518.78;;;1.17;100.00
21357;BME280;10836;53.068;18.234;2023-02-02T04:40:47;99512.81;;;1.15;100.00
21357;BME280;10836;53.068;18.234;2023-02-02T04:43:14;99523.72;;;1.09;100.00
21357;BME280;10836;53.068;18.234;2023-02-02T04:45:41;99527.13;;;1.04;100.00
21357;BME280;10836;53.068;18.234;2023-02-02T04:48:08;99526.44;;;0.97;100.00
21357;BME280;10836;53.068;18.234;2023-02-02T04:50:35;99515.88;;;1.07;100.00
21357;BME280;10836;53.068;18.234;2023-02-02T04:53:03;99529.91;;;1.09;100.00
21357;BME280;10836;53.068;18.234;2023-02-02T04:55:30;99530.84;;;1.03;100.00
21357;BME280;10836;53.068;18.234;2023-02-02T04:57:57;99529.91;;;1.09;100.00
21357;BME280;10836;53.068;18.234;2023-02-02T05:00:24;99537.38;;;1.07;100.00
21357;BME280;10836;53.068;18.234;2023-02-02T05:02:50;99539.03;;;1.08;100.00
21357;BME280;10836;53.068;18.234;2023-02-02T05:05:17;99539.16;;;1.02;100.00
21357;BME280;10836;53.068;18.234;2023-02-02T05:07:46;99532.97;;;1.01;100.00
21357;BME280;10836;53.068;18.234;2023-02-02T05:10:13;99545.69;;;1.06;100.00
21357;BME280;10836;53.068;18.234;2023-02-02T05:12:39;99551.75;;;1.13;100.00
21357;BME280;10836;53.068;18.234;2023-02-02T05:15:07;99542.78;;;1.07;100.00
21357;BME280;10836;53.068;18.234;2023-02-02T05:17:34;99545.28;;;1.25;100.00
21357;BME280;10836;53.068;18.234;2023-02-02T05:20:01;99549.16;;;1.18;100.00
21357;BME280;10836;53.068;18.234;2023-02-02T05:22:28;99555.13;;;1.20;100.00
21357;BME280;10836;53.068;18.234;2023-02-02T05:24:55;99568.09;;;1.23;100.00
21357;BME280;10836;53.068;18.234;2023-02-02T05:27:22;99568.69;;;1.13;100.00
21357;BME280;10836;53.068;18.234;2023-02-02T05:29:49;99567.25;;;1.22;100.00
21357;BME280;10836;53.068;18.234;2023-02-02T05:32:15;99569.53;;;1.30;100.00
21357;BME280;10836;53.068;18.234;2023-02-02T05:34:42;99568.31;;;1.21;100.00
21357;BME280;10836;53.068;18.234;2023-02-02T05:37:09;99583.19;;;1.12;100.00
21357;BME280;10836;53.068;18.234;2023-02-02T05:39:36;99579.44;;;1.13;100.00
21357;BME280;10836;53.068;18.234;2023-02-02T05:42:03;99583.88;;;1.19;100.00
21357;BME280;10836;53.068;18.234;2023-02-02T05:44:30;99591.72;;;1.21;100.00
21357;BME280;10836;53.068;18.234;2023-02-02T05:46:57;99586.47;;;1.14;100.00
21357;BME280;10836;53.068;18.234;2023-02-02T05:49:24;99596.84;;;1.22;100.00
21357;BME280;10836;53.068;18.234;2023-02-02T05:51:53;99605.88;;;1.16;100.00
21357;BME280;10836;53.068;18.234;2023-02-02T05:54:23;99612.53;;;1.14;100.00
21357;BME280;10836;53.068;18.234;2023-02-02T05:56:51;99622.47;;;1.13;100.00
21357;BME280;10836;53.068;18.234;2023-02-02T05:59:20;99626.78;;;1.14;100.00
21357;BME280;10836;53.068;18.234;2023-02-02T06:01:48;99630.19;;;1.10;100.00
21357;BME280;10836;53.068;18.234;2023-02-02T06:04:15;99629.13;;;1.11;100.00
21357;BME280;10836;53.068;18.234;2023-02-02T06:06:42;99650.53;;;1.17;100.00
21357;BME280;10836;53.068;18.234;2023-02-02T06:09:10;99658.13;;;1.20;100.00
21357;BME280;10836;53.068;18.234;2023-02-02T06:11:36;99657.44;;;1.13;100.00
21357;BME280;10836;53.068;18.234;2023-02-02T06:14:05;99664.75;;;1.29;100.00
21357;BME280;10836;53.068;18.234;2023-02-02T06:16:33;99682.50;;;1.30;100.00
21357;BME280;10836;53.068;18.234;2023-02-02T06:19:00;99684.06;;;1.26;100.00
21357;BME280;10836;53.068;18.234;2023-02-02T06:21:27;99700.28;;;1.31;100.00
21357;BME280;10836;53.068;18.234;2023-02-02T06:23:57;99697.69;;;1.37;100.00
21357;BME280;10836;53.068;18.234;2023-02-02T06:26:24;99713.81;;;1.37;100.00
21357;BME280;10836;53.068;18.234;2023-02-02T06:28:53;99715.94;;;1.34;100.00
21357;BME280;10836;53.068;18.234;2023-02-02T06:31:20;99720.94;;;1.43;100.00
21357;BME280;10836;53.068;18.234;2023-02-02T06:33:52;99725.75;;;1.41;100.00
21357;BME280;10836;53.068;18.234;2023-02-02T06:36:20;99727.72;;;1.45;100.00
21357;BME280;10836;53.068;18.234;2023-02-02T06:38:48;99741.06;;;1.40;100.00
21357;BME280;10836;53.068;18.234;2023-02-02T06:41:17;99744.69;;;1.46;100.00
21357;BME280;10836;53.068;18.234;2023-02-02T06:43:44;99759.19;;;1.45;100.00
21357;BME280;10836;53.068;18.234;2023-02-02T06:46:11;99757.09;;;1.47;100.00
21357;BME280;10836;53.068;18.234;2023-02-02T06:48:38;99761.31;;;1.43;100.00
21357;BME280;10836;53.068;18.234;2023-02-02T06:51:05;99764.56;;;1.45;100.00
21357;BME280;10836;53.068;18.234;2023-02-02T06:53:33;99774.41;;;1.51;100.00
21357;BME280;10836;53.068;18.234;2023-02-02T06:56:03;99782.59;;;1.32;100.00
21357;BME280;10836;53.068;18.234;2023-02-02T06:58:32;99785.63;;;1.48;100.00
21357;BME280;10836;53.068;18.234;2023-02-02T07:01:09;99797.19;;;1.48;100.00
21357;BME280;10836;53.068;18.234;2023-02-02T07:03:38;99806.09;;;1.49;100.00
21357;BME280;10836;53.068;18.234;2023-02-02T07:06:12;99809.00;;;1.59;100.00
21357;BME280;10836;53.068;18.234;2023-02-02T07:08:39;99818.03;;;1.53;100.00
21357;BME280;10836;53.068;18.234;2023-02-02T07:11:06;99817.31;;;1.57;100.00
21357;BME280;10836;53.068;18.234;2023-02-02T07:13:43;99831.22;;;1.66;100.00
21357;BME280;10836;53.068;18.234;2023-02-02T07:16:10;99836.81;;;1.76;100.00
21357;BME280;10836;53.068;18.234;2023-02-02T07:18:39;99841.88;;;1.61;100.00
21357;BME280;10836;53.068;18.234;2023-02-02T07:21:06;99852.75;;;1.66;100.00
21357;BME280;10836;53.068;18.234;2023-02-02T07:23:33;99858.03;;;1.61;100.00
21357;BME280;10836;53.068;18.234;2023-02-02T07:26:05;99859.63;;;1.74;100.00
21357;BME280;10836;53.068;18.234;2023-02-02T07:28:33;99860.31;;;1.81;100.00
21357;BME280;10836;53.068;18.234;2023-02-02T07:31:00;99867.69;;;1.74;100.00
21357;BME280;10836;53.068;18.234;2023-02-02T07:33:40;99880.38;;;1.73;100.00
21357;BME280;10836;53.068;18.234;2023-02-02T07:36:07;99873.00;;;1.69;100.00
21357;BME280;10836;53.068;18.234;2023-02-02T07:38:34;99884.00;;;1.67;100.00
21357;BME280;10836;53.068;18.234;2023-02-02T07:41:01;99885.38;;;1.81;100.00
21357;BME280;10836;53.068;18.234;2023-02-02T07:43:29;99886.19;;;1.93;100.00
21357;BME280;10836;53.068;18.234;2023-02-02T07:46:04;99892.03;;;1.90;100.00
21357;BME280;10836;53.068;18.234;2023-02-02T07:48:34;99899.06;;;1.91;100.00
21357;BME280;10836;53.068;18.234;2023-02-02T07:51:06;99902.56;;;2.04;100.00
21357;BME280;10836;53.068;18.234;2023-02-02T07:53:34;99913.69;;;1.95;100.00
21357;BME280;10836;53.068;18.234;2023-02-02T07:58:32;99924.34;;;1.90;100.00
21357;BME280;10836;53.068;18.234;2023-02-02T08:01:03;99933.47;;;1.89;100.00
21357;BME280;10836;53.068;18.234;2023-02-02T08:03:30;99927.03;;;1.90;100.00
21357;BME280;10836;53.068;18.234;2023-02-02T08:05:58;99928.19;;;1.94;100.00
21357;BME280;10836;53.068;18.234;2023-02-02T08:08:25;99934.88;;;2.04;100.00
21357;BME280;10836;53.068;18.234;2023-02-02T08:10:53;99934.59;;;2.17;100.00
21357;BME280;10836;53.068;18.234;2023-02-02T08:13:20;99947.81;;;2.18;100.00
21357;BME280;10836;53.068;18.234;2023-02-02T08:15:47;99957.31;;;2.21;100.00
21357;BME280;10836;53.068;18.234;2023-02-02T08:18:14;99956.63;;;2.14;100.00
21357;BME280;10836;53.068;18.234;2023-02-02T08:20:41;99967.41;;;2.14;100.00
21357;BME280;10836;53.068;18.234;2023-02-02T08:23:09;99980.03;;;2.25;100.00
21357;BME280;10836;53.068;18.234;2023-02-02T08:25:44;99980.03;;;2.25;100.00
21357;BME280;10836;53.068;18.234;2023-02-02T08:28:11;99975.09;;;2.22;100.00
21357;BME280;10836;53.068;18.234;2023-02-02T08:30:38;99978.38;;;2.24;100.00
21357;BME280;10836;53.068;18.234;2023-02-02T08:33:05;99989.50;;;2.39;100.00
21357;BME280;10836;53.068;18.234;2023-02-02T08:35:32;99981.88;;;2.36;100.00
21357;BME280;10836;53.068;18.234;2023-02-02T08:37:59;99996.53;;;2.40;100.00
21357;BME280;10836;53.068;18.234;2023-02-02T08:40:30;100003.44;;;2.36;100.00
21357;BME280;10836;53.068;18.234;2023-02-02T08:42:58;100008.81;;;2.36;100.00
21357;BME280;10836;53.068;18.234;2023-02-02T08:45:25;100016.44;;;2.39;100.00
21357;BME280;10836;53.068;18.234;2023-02-02T08:48:12;100022.41;;;2.41;100.00
21357;BME280;10836;53.068;18.234;2023-02-02T08:50:42;100028.50;;;2.48;100.00
21357;BME280;10836;53.068;18.234;2023-02-02T08:53:09;100026.56;;;2.60;100.00
21357;BME280;10836;53.068;18.234;2023-02-02T08:55:36;100041.44;;;2.63;100.00
21357;BME280;10836;53.068;18.234;2023-02-02T08:58:03;100056.91;;;2.67;100.00
21357;BME280;10836;53.068;18.234;2023-02-02T09:00:30;100057.03;;;2.73;100.00
21357;BME280;10836;53.068;18.234;2023-02-02T09:02:57;100064.53;;;2.71;100.00
21357;BME280;10836;53.068;18.234;2023-02-02T09:05:24;100064.06;;;2.74;100.00
21357;BME280;10836;53.068;18.234;2023-02-02T09:07:52;100081.19;;;2.67;100.00
21357;BME280;10836;53.068;18.234;2023-02-02T09:10:19;100081.88;;;2.75;100.00
21357;BME280;10836;53.068;18.234;2023-02-02T09:12:46;100087.59;;;2.90;100.00
21357;BME280;10836;53.068;18.234;2023-02-02T09:15:13;100093.69;;;2.97;100.00
21357;BME280;10836;53.068;18.234;2023-02-02T09:17:40;100096.06;;;3.10;100.00
21357;BME280;10836;53.068;18.234;2023-02-02T09:20:07;100099.97;;;3.43;100.00
21357;BME280;10836;53.068;18.234;2023-02-02T09:22:34;100105.44;;;3.93;100.00
21357;BME280;10836;53.068;18.234;2023-02-02T09:25:01;100117.31;;;4.25;100.00
21357;BME280;10836;53.068;18.234;2023-02-02T09:27:28;100118.22;;;3.97;100.00
21357;BME280;10836;53.068;18.234;2023-02-02T09:29:54;100137.03;;;3.92;100.00
21357;BME280;10836;53.068;18.234;2023-02-02T09:32:21;100147.34;;;3.79;100.00
21357;BME280;10836;53.068;18.234;2023-02-02T09:34:48;100155.81;;;3.71;100.00
21357;BME280;10836;53.068;18.234;2023-02-02T09:37:15;100168.25;;;3.72;100.00
21357;BME280;10836;53.068;18.234;2023-02-02T09:39:42;100171.59;;;3.62;100.00
21357;BME280;10836;53.068;18.234;2023-02-02T09:45:05;100182.38;;;3.62;100.00
21357;BME280;10836;53.068;18.234;2023-02-02T09:47:54;100201.75;;;3.59;100.00
21357;BME280;10836;53.068;18.234;2023-02-02T09:50:42;100202.34;;;3.61;100.00
21357;BME280;10836;53.068;18.234;2023-02-02T09:53:25;100209.75;;;3.54;100.00
21357;BME280;10836;53.068;18.234;2023-02-02T09:55:56;100215.78;;;3.44;100.00
21357;BME280;10836;53.068;18.234;2023-02-02T10:03:49;100241.88;;;3.67;100.00
21357;BME280;10836;53.068;18.234;2023-02-02T10:08:55;100254.59;;;3.55;100.00
21357;BME280;10836;53.068;18.234;2023-02-02T10:11:28;100252.69;;;3.67;100.00
21357;BME280;10836;53.068;18.234;2023-02-02T10:14:02;100251.34;;;4.10;100.00
21357;BME280;10836;53.068;18.234;2023-02-02T10:16:32;100274.84;;;4.88;100.00
21357;BME280;10836;53.068;18.234;2023-02-02T10:19:10;100278.09;;;5.23;100.00
21357;BME280;10836;53.068;18.234;2023-02-02T10:21:50;100279.63;;;4.97;100.00
21357;BME280;10836;53.068;18.234;2023-02-02T10:24:22;100278.13;;;4.56;100.00
21357;BME280;10836;53.068;18.234;2023-02-02T10:26:54;100299.50;;;4.13;100.00
21357;BME280;10836;53.068;18.234;2023-02-02T10:38:18;100301.88;;;4.09;100.00
21357;BME280;10836;53.068;18.234;2023-02-02T10:41:16;100311.22;;;3.90;100.00
21357;BME280;10836;53.068;18.234;2023-02-02T10:43:57;100311.97;;;4.14;100.00
21357;BME280;10836;53.068;18.234;2023-02-02T10:46:39;100319.72;;;5.56;100.00
21357;BME280;10836;53.068;18.234;2023-02-02T10:51:39;100327.53;;;9.72;90.40
21357;BME280;10836;53.068;18.234;2023-02-02T10:54:19;100334.78;;;9.97;83.90
21357;BME280;10836;53.068;18.234;2023-02-02T10:56:51;100346.13;;;9.24;86.63
21357;BME280;10836;53.068;18.234;2023-02-02T10:59:35;100352.28;;;7.76;94.69
21357;BME280;10836;53.068;18.234;2023-02-02T11:02:10;100358.00;;;6.74;98.26
21357;BME280;10836;53.068;18.234;2023-02-02T11:04:46;100364.84;;;6.27;100.00
21357;BME280;10836;53.068;18.234;2023-02-02T11:07:32;100371.75;;;5.58;100.00
21357;BME280;10836;53.068;18.234;2023-02-02T11:09:59;100374.25;;;5.09;100.00
21357;BME280;10836;53.068;18.234;2023-02-02T11:12:46;100369.66;;;5.10;100.00
21357;BME280;10836;53.068;18.234;2023-02-02T11:17:51;100371.75;;;4.91;100.00
21357;BME280;10836;53.068;18.234;2023-02-02T11:20:32;100374.88;;;4.83;100.00
21357;BME280;10836;53.068;18.234;2023-02-02T11:23:01;100372.06;;;4.61;100.00
21357;BME280;10836;53.068;18.234;2023-02-02T11:25:34;100383.00;;;4.54;100.00
21357;BME280;10836;53.068;18.234;2023-02-02T11:28:19;100385.81;;;4.59;100.00
21357;BME280;10836;53.068;18.234;2023-02-02T11:30:48;100388.94;;;5.13;100.00
21357;BME280;10836;53.068;18.234;2023-02-02T11:33:33;100393.03;;;5.32;100.00
21357;BME280;10836;53.068;18.234;2023-02-02T11:36:16;100390.16;;;5.22;99.70
21357;BME280;10836;53.068;18.234;2023-02-02T11:38:43;100407.56;;;5.43;100.00
21357;BME280;10836;53.068;18.234;2023-02-02T11:41:10;100402.13;;;5.26;100.00
21357;BME280;10836;53.068;18.234;2023-02-02T11:46:22;100405.59;;;5.39;99.80
21357;BME280;10836;53.068;18.234;2023-02-02T11:49:00;100404.59;;;5.11;100.00
21357;BME280;10836;53.068;18.234;2023-02-02T11:51:29;100415.91;;;5.42;100.00
21357;BME280;10836;53.068;18.234;2023-02-02T11:54:15;100417.06;;;5.12;100.00
21357;BME280;10836;53.068;18.234;2023-02-02T11:56:47;100427.31;;;4.82;100.00
21357;BME280;10836;53.068;18.234;2023-02-02T12:04:40;100424.53;;;4.77;100.00
21357;BME280;10836;53.068;18.234;2023-02-02T12:07:33;100441.69;;;4.54;100.00
21357;BME280;10836;53.068;18.234;2023-02-02T12:10:18;100450.84;;;4.53;100.00
21357;BME280;10836;53.068;18.234;2023-02-02T12:13:05;100457.31;;;4.52;100.00
21357;BME280;10836;53.068;18.234;2023-02-02T12:18:45;100467.09;;;4.41;100.00
21357;BME280;10836;53.068;18.234;2023-02-02T12:26:34;100466.72;;;3.86;100.00
21357;BME280;10836;53.068;18.234;2023-02-02T12:29:13;100485.38;;;3.64;100.00
21357;BME280;10836;53.068;18.234;2023-02-02T12:34:47;100490.50;;;3.54;100.00
21357;BME280;10836;53.068;18.234;2023-02-02T12:43:13;100505.03;;;3.29;100.00
21357;BME280;10836;53.068;18.234;2023-02-02T12:48:33;100520.75;;;3.32;100.00
21357;BME280;10836;53.068;18.234;2023-02-02T12:54:36;100533.38;;;3.20;100.00
21357;BME280;10836;53.068;18.234;2023-02-02T13:00:11;100535.25;;;3.61;100.00
21357;BME280;10836;53.068;18.234;2023-02-02T13:02:59;100540.56;;;3.91;100.00
21357;BME280;10836;53.068;18.234;2023-02-02T13:05:50;100542.31;;;3.74;100.00
21357;BME280;10836;53.068;18.234;2023-02-02T13:11:12;100551.50;;;3.96;100.00
21357;BME280;10836;53.068;18.234;2023-02-02T13:14:12;100551.41;;;4.15;100.00
21357;BME280;10836;53.068;18.234;2023-02-02T13:16:45;100545.50;;;3.94;100.00
21357;BME280;10836;53.068;18.234;2023-02-02T13:22:11;100557.44;;;6.93;100.00
21357;BME280;10836;53.068;18.234;2023-02-02T13:24:41;100562.16;;;7.03;96.14
21357;BME280;10836;53.068;18.234;2023-02-02T13:27:14;100562.75;;;8.22;87.35
21357;BME280;10836;53.068;18.234;2023-02-02T13:29:48;100574.97;;;9.19;84.92
21357;BME280;10836;53.068;18.234;2023-02-02T13:32:30;100589.44;;;8.67;83.52
21357;BME280;10836;53.068;18.234;2023-02-02T13:35:02;100597.53;;;7.88;86.90
21357;BME280;10836;53.068;18.234;2023-02-02T13:37:36;100602.22;;;6.35;92.85
21357;BME280;10836;53.068;18.234;2023-02-02T13:40:38;100597.72;;;5.33;100.00
21357;BME280;10836;53.068;18.234;2023-02-02T13:45:51;100609.91;;;4.21;100.00
21357;BME280;10836;53.068;18.234;2023-02-02T13:56:59;100623.50;;;6.10;96.68
21357;BME280;10836;53.068;18.234;2023-02-02T14:02:01;100637.34;;;6.63;97.86
21357;BME280;10836;53.068;18.234;2023-02-02T14:04:29;100646.22;;;7.36;90.78
21357;BME280;10836;53.068;18.234;2023-02-02T14:07:02;100655.88;;;8.02;86.34
21357;BME280;10836;53.068;18.234;2023-02-02T14:09:35;100655.47;;;8.48;83.57
21357;BME280;10836;53.068;18.234;2023-02-02T14:12:07;100663.44;;;9.74;77.62
21357;BME280;10836;53.068;18.234;2023-02-02T14:14:37;100671.84;;;9.62;75.84
21357;BME280;10836;53.068;18.234;2023-02-02T14:19:47;100681.34;;;6.65;80.36
21357;BME280;10836;53.068;18.234;2023-02-02T14:22:23;100697.66;;;5.75;77.13
21357;BME280;10836;53.068;18.234;2023-02-02T14:28:00;100712.59;;;5.49;75.57
21357;BME280;10836;53.068;18.234;2023-02-02T14:30:30;100721.09;;;5.29;77.17
21357;BME280;10836;53.068;18.234;2023-02-02T14:41:38;100756.06;;;4.08;82.79
21357;BME280;10836;53.068;18.234;2023-02-02T14:44:27;100773.84;;;3.67;85.98
21357;BME280;10836;53.068;18.234;2023-02-02T14:46:54;100776.09;;;3.52;88.33
21357;BME280;10836;53.068;18.234;2023-02-02T14:49:24;100784.63;;;3.49;88.00
21357;BME280;10836;53.068;18.234;2023-02-02T14:51:56;100784.72;;;3.42;89.23
21357;BME280;10836;53.068;18.234;2023-02-02T14:54:34;100794.22;;;3.26;91.04
21357;BME280;10836;53.068;18.234;2023-02-02T14:57:25;100814.13;;;3.07;92.91
21357;BME280;10836;53.068;18.234;2023-02-02T14:59:53;100816.09;;;3.00;94.61
21357;BME280;10836;53.068;18.234;2023-02-02T15:02:28;100824.28;;;2.87;94.66
21357;BME280;10836;53.068;18.234;2023-02-02T15:08:14;100844.34;;;2.66;97.35